Time;durP1;ratioP1;P1;durP2;ratioP2;P2;SDS_P1;SDS_P2;PMS_P1;PMS_P2;Temp;Humidity;BMP_temperature;BMP_pressure;BME280_temperature;BME280_humidity;BME280_pressure;Samples;Min_cycle;Max_cycle;Signal;HPM_P1;HPM_P2
2022/01/20 00:04:25;;;;;;;8.93;5.67;;;;;;;3.98;100.00;96889.81;5009083;28;101820;-60
2022/01/20 00:26:22;;;;;;;4.53;3.93;;;;;;;4.01;100.00;96890.22;5009063;28;101812;-60
2022/01/20 00:28:53;;;;;;;5.57;3.80;;;;;;;4.02;100.00;96897.09;5008709;28;105507;-60
2022/01/20 00:31:35;;;;;;;6.27;3.87;;;;;;;4.06;100.00;96902.78;5008555;28;105319;-60
2022/01/20 00:34:16;;;;;;;7.07;4.43;;;;;;;4.04;100.00;96899.53;5008903;28;102037;-60
2022/01/20 00:39:29;;;;;;;3.83;3.47;;;;;;;4.00;100.00;96893.03;5008515;28;102237;-60
2022/01/20 00:41:57;;;;;;;5.10;4.10;;;;;;;3.99;100.00;96892.22;5008762;28;105476;-60
2022/01/20 00:44:25;;;;;;;5.57;4.07;;;;;;;3.98;100.00;96890.59;5008145;28;105373;-60
2022/01/20 00:46:52;;;;;;;4.70;3.93;;;;;;;3.96;100.00;96882.09;5008671;28;102089;-60
2022/01/20 00:49:21;;;;;;;4.70;3.90;;;;;;;3.96;100.00;96887.38;5008689;28;105306;-60
2022/01/20 00:51:48;;;;;;;4.57;3.33;;;;;;;3.97;100.00;96888.16;5007861;28;105779;-60
2022/01/20 00:54:15;;;;;;;3.43;3.13;;;;;;;3.95;100.00;96890.19;5008639;28;101947;-60
2022/01/20 00:56:42;;;;;;;4.80;4.00;;;;;;;3.93;100.00;96893.00;5008503;28;105079;-60
2022/01/20 00:59:09;;;;;;;4.17;3.70;;;;;;;3.93;100.00;96897.47;5012677;28;103091;-60
2022/01/20 01:01:36;;;;;;;5.10;3.90;;;;;;;3.91;100.00;96884.50;5008580;28;105403;-60
2022/01/20 01:04:03;;;;;;;5.00;4.47;;;;;;;3.91;100.00;96878.44;5011359;28;105458;-60
2022/01/20 01:06:49;;;;;;;4.63;4.13;;;;;;;3.85;100.00;96890.56;5011981;28;101970;-60
2022/01/20 01:09:18;;;;;;;5.03;3.80;;;;;;;3.81;100.00;96867.47;5012031;28;104123;-60
2022/01/20 01:11:47;;;;;;;6.10;4.10;;;;;;;3.80;100.00;96852.69;5010056;28;105418;-60
2022/01/20 01:14:17;;;;;;;5.23;3.93;;;;;;;3.80;100.00;96857.94;5011839;28;103673;-60
2022/01/20 01:22:22;;;;;;;4.00;3.50;;;;;;;3.83;100.00;96855.72;5015257;28;101785;-60
2022/01/20 01:24:51;;;;;;;4.23;3.43;;;;;;;3.80;100.00;96850.88;5011285;28;105192;-60
2022/01/20 01:27:22;;;;;;;4.03;3.53;;;;;;;3.81;100.00;96856.94;5011663;28;101893;-60
2022/01/20 01:30:07;;;;;;;3.60;2.90;;;;;;;3.80;100.00;96857.94;5011804;28;105181;-60
2022/01/20 01:32:45;;;;;;;3.67;3.30;;;;;;;3.80;100.00;96855.31;5010977;28;105250;-60
2022/01/20 01:35:13;;;;;;;3.80;3.13;;;;;;;3.84;100.00;96861.81;5011758;28;102136;-60
2022/01/20 01:40:30;;;;;;;4.93;3.23;;;;;;;3.86;100.00;96857.16;5010862;28;105474;-60
2022/01/20 01:43:01;;;;;;;3.77;3.10;;;;;;;3.89;100.00;96862.88;5011674;28;102162;-60
2022/01/20 01:45:32;;;;;;;3.83;3.10;;;;;;;3.95;100.00;96863.88;5013944;28;105224;-60
2022/01/20 01:48:00;;;;;;;4.13;3.23;;;;;;;3.98;100.00;96860.88;5011537;28;101820;-60
2022/01/20 01:50:29;;;;;;;3.77;2.97;;;;;;;3.96;100.00;96853.16;5011832;28;104908;-60
2022/01/20 01:53:00;;;;;;;2.93;2.67;;;;;;;3.96;100.00;96852.34;5027517;28;105634;-60
2022/01/20 01:55:27;;;;;;;3.30;3.00;;;;;;;3.96;100.00;96847.09;5011347;28;101931;-60
2022/01/20 01:57:55;;;;;;;3.43;3.10;;;;;;;3.98;100.00;96855.59;5012586;28;102522;-60
2022/01/20 02:00:26;;;;;;;4.60;2.80;;;;;;;3.96;100.00;96852.34;5010687;28;105430;-60
2022/01/20 02:03:01;;;;;;;4.13;2.70;;;;;;;3.95;100.00;96853.34;5011304;28;101783;-60
2022/01/20 02:06:03;;;;;;;3.80;2.40;;;;;;;3.99;100.00;96855.38;5011388;28;104977;-60
2022/01/20 02:08:38;;;;;;;2.77;2.43;;;;;;;4.02;100.00;96848.91;5013565;28;105100;-60
2022/01/20 02:19:21;;;;;;;2.80;2.40;;;;;;;4.11;100.00;96840.66;5011121;28;105445;-60
2022/01/20 02:22:02;;;;;;;3.10;2.70;;;;;;;4.12;100.00;96844.91;5010271;28;105333;-60
2022/01/20 02:24:32;;;;;;;3.60;2.60;;;;;;;4.13;100.00;96836.00;5010886;28;102083;-60
2022/01/20 02:26:59;;;;;;;2.60;2.40;;;;;;;4.15;100.00;96833.19;5010975;28;105147;-60
2022/01/20 02:29:32;;;;;;;3.67;2.70;;;;;;;4.18;100.00;96832.75;5010087;28;105355;-60
2022/01/20 02:32:01;;;;;;;3.37;2.57;;;;;;;4.14;100.00;96831.56;5014344;28;101814;-60
2022/01/20 02:34:31;;;;;;;2.97;2.50;;;;;;;4.19;100.00;96837.00;5009862;28;105598;-60
2022/01/20 02:37:06;;;;;;;2.87;2.57;;;;;;;4.21;100.00;96821.84;5010634;28;101908;-60
2022/01/20 02:40:00;;;;;;;2.47;2.27;;;;;;;4.20;100.00;96817.59;5010569;28;104944;-60
2022/01/20 02:45:11;;;;;;;3.00;2.70;;;;;;;4.19;100.00;96798.34;5009952;28;102788;-60
2022/01/20 02:47:39;;;;;;;3.10;2.57;;;;;;;4.22;100.00;96805.88;5010459;28;104794;-60
2022/01/20 02:50:07;;;;;;;3.23;2.33;;;;;;;4.19;100.00;96798.34;5009908;28;104274;-60
2022/01/20 02:52:40;;;;;;;3.00;2.70;;;;;;;4.19;100.00;96795.72;5013793;28;101812;-60
2022/01/20 02:55:08;;;;;;;4.10;2.80;;;;;;;4.19;100.00;96793.09;5009737;28;106072;-61
2022/01/20 02:57:35;;;;;;;2.50;2.30;;;;;;;4.22;100.00;96797.16;5010573;28;101880;-60
2022/01/20 03:00:02;;;;;;;2.80;2.33;;;;;;;4.25;100.00;96788.84;5010347;28;104898;-60
2022/01/20 03:02:30;;;;;;;3.43;2.40;;;;;;;4.24;100.00;96789.84;5009673;28;105019;-60
2022/01/20 03:04:56;;;;;;;2.83;2.63;;;;;;;4.24;100.00;96790.66;5010193;28;101983;-60
2022/01/20 03:07:32;;;;;;;3.33;2.40;;;;;;;4.25;100.00;96791.50;5010322;28;104189;-60
2022/01/20 03:10:00;;;;;;;3.13;2.70;;;;;;;4.24;100.00;96777.50;5007679;28;105112;-60
2022/01/20 03:12:27;;;;;;;3.13;2.43;;;;;;;4.19;100.00;96782.56;5010148;28;101938;-60
2022/01/20 03:14:54;;;;;;;2.93;2.30;;;;;;;4.21;100.00;96761.31;5012733;28;104967;-60
2022/01/20 03:17:21;;;;;;;2.80;2.60;;;;;;;4.19;100.00;96760.69;5010226;28;101983;-60
2022/01/20 03:19:49;;;;;;;3.33;2.63;;;;;;;4.20;100.00;96770.22;5009820;28;103593;-60
2022/01/20 03:22:16;;;;;;;3.27;2.60;;;;;;;4.20;100.00;96762.34;5009347;28;105380;-60
2022/01/20 03:24:43;;;;;;;3.30;2.60;;;;;;;4.19;100.00;96765.94;5009874;28;101892;-60
2022/01/20 03:27:13;;;;;;;2.93;2.60;;;;;;;4.18;100.00;96769.59;5008491;28;104896;-60
2022/01/20 03:29:41;;;;;;;2.40;2.20;;;;;;;4.15;100.00;96762.91;5009308;28;106086;-60
2022/01/20 03:32:09;;;;;;;2.60;2.40;;;;;;;4.16;100.00;96771.63;5009786;28;101856;-60
2022/01/20 03:34:36;;;;;;;2.90;2.50;;;;;;;4.14;100.00;96769.19;5009496;28;105784;-60
2022/01/20 03:37:09;;;;;;;3.20;2.20;;;;;;;4.14;100.00;96771.03;5012564;28;105179;-60
2022/01/20 03:39:45;;;;;;;3.30;2.27;;;;;;;3.98;100.00;96777.47;5009719;28;105290;-60
2022/01/20 03:42:14;;;;;;;2.83;2.33;;;;;;;3.86;100.00;96791.41;5009165;28;105069;-60
2022/01/20 03:44:42;;;;;;;2.47;2.27;;;;;;;3.74;100.00;96780.66;5009686;28;101757;-60
2022/01/20 03:47:11;;;;;;;2.67;2.40;;;;;;;3.72;100.00;96789.75;5009439;28;104698;-60
2022/01/20 03:49:50;;;;;;;3.17;2.83;;;;;;;3.64;100.00;96785.47;5008957;28;105579;-59
2022/01/20 03:52:17;;;;;;;2.87;2.57;;;;;;;3.58;100.00;96791.53;5009612;28;101798;-60
2022/01/20 03:54:44;;;;;;;2.70;2.40;;;;;;;3.58;100.00;96775.75;5009495;28;105345;-60
2022/01/20 03:57:19;;;;;;;3.23;2.77;;;;;;;3.56;100.00;96800.63;5007330;28;102492;-60
2022/01/20 03:59:56;;;;;;;2.57;2.30;;;;;;;3.50;100.00;96796.94;5011325;28;101873;-59
2022/01/20 04:02:43;;;;;;;2.83;2.40;;;;;;;3.42;100.00;96806.81;5007247;28;102372;-59
2022/01/20 04:05:30;;;;;;;3.00;2.70;;;;;;;3.34;100.00;96833.28;5010503;28;102117;-60
2022/01/20 04:08:16;;;;;;;3.70;2.57;;;;;;;3.27;100.00;96800.91;5009370;28;104961;-60
2022/01/20 04:10:42;;;;;;;3.10;2.80;;;;;;;3.19;100.00;96804.50;5008650;28;105194;-60
2022/01/20 04:13:11;;;;;;;2.93;2.70;;;;;;;3.16;100.00;96804.09;5008925;28;102163;-60
2022/01/20 04:15:40;;;;;;;3.40;3.03;;;;;;;3.08;100.00;96797.16;5009129;28;105330;-59
2022/01/20 04:18:11;;;;;;;3.40;3.10;;;;;;;3.07;100.00;96805.25;5008504;28;105375;-60
2022/01/20 04:20:39;;;;;;;3.97;3.13;;;;;;;2.99;100.00;96802.75;5008892;28;101774;-60
2022/01/20 04:23:06;;;;;;;3.60;2.90;;;;;;;2.95;100.00;96817.28;5012018;28;104819;-59
2022/01/20 04:25:34;;;;;;;3.30;3.00;;;;;;;2.91;100.00;96822.13;5009172;28;101883;-59
2022/01/20 04:28:01;;;;;;;3.67;3.00;;;;;;;2.90;100.00;96809.19;5008827;28;105393;-60
2022/01/20 04:30:31;;;;;;;3.10;2.80;;;;;;;2.92;100.00;96801.91;5008343;28;104836;-60
2022/01/20 04:32:58;;;;;;;4.20;3.00;;;;;;;2.92;100.00;96804.53;5009043;28;101908;-60
2022/01/20 04:35:26;;;;;;;4.97;3.10;;;;;;;2.92;100.00;96805.34;5008663;28;105180;-59
2022/01/20 04:37:56;;;;;;;3.87;3.20;;;;;;;2.96;100.00;96809.19;5007771;28;105389;-60
2022/01/20 04:40:23;;;;;;;3.53;2.80;;;;;;;2.97;100.00;96804.78;5008774;28;102083;-59
2022/01/20 04:42:51;;;;;;;3.40;3.07;;;;;;;2.98;100.00;96803.75;5009064;28;103714;-60
2022/01/20 04:45:23;;;;;;;4.23;3.30;;;;;;;2.99;100.00;96810.63;5011003;28;102012;-59
2022/01/20 04:48:01;;;;;;;5.10;3.10;;;;;;;3.00;100.00;96801.78;5009540;28;101735;-60
2022/01/20 04:58:40;;;;;;;2.80;2.60;;;;;;;3.05;100.00;96804.59;5008019;28;104959;-60
2022/01/20 05:01:07;;;;;;;2.90;2.60;;;;;;;3.07;100.00;96821.00;5008312;28;101917;-59
2022/01/20 05:03:36;;;;;;;2.80;2.50;;;;;;;3.04;100.00;96824.81;5009900;28;102502;-60
2022/01/20 05:06:14;;;;;;;3.00;2.70;;;;;;;3.01;100.00;96832.28;5011492;28;104046;-60
2022/01/20 05:08:43;;;;;;;3.20;2.90;;;;;;;2.98;100.00;96830.84;5008398;28;105736;-59
2022/01/20 05:11:12;;;;;;;3.13;2.83;;;;;;;2.93;100.00;96824.53;5007723;28;105157;-59
2022/01/20 05:13:40;;;;;;;3.57;3.27;;;;;;;2.90;100.00;96830.19;5008168;28;102854;-59
2022/01/20 05:16:09;;;;;;;3.07;2.80;;;;;;;2.80;100.00;96829.72;5008319;28;105230;-60
2022/01/20 05:18:38;;;;;;;3.07;2.80;;;;;;;2.76;100.00;96829.28;5007781;28;105471;-59
2022/01/20 05:21:06;;;;;;;4.50;2.83;;;;;;;2.68;100.00;96832.03;5008365;28;101814;-59
2022/01/20 05:23:36;;;;;;;3.90;3.10;;;;;;;2.65;100.00;96831.63;5008153;28;105182;-60
2022/01/20 05:26:09;;;;;;;3.13;2.87;;;;;;;2.58;100.00;96828.94;5007782;28;105536;-60
2022/01/20 05:28:38;;;;;;;5.73;3.40;;;;;;;2.52;100.00;96827.06;5012121;28;101900;-60
2022/01/20 05:31:05;;;;;;;3.60;3.30;;;;;;;2.46;100.00;96834.91;5007841;28;105776;-60
2022/01/20 05:34:01;;;;;;;3.47;3.00;;;;;;;2.45;100.00;96834.09;5008644;28;101826;-60
2022/01/20 05:36:28;;;;;;;5.07;3.03;;;;;;;2.41;100.00;96832.03;5008397;28;104569;-59
2022/01/20 05:39:12;;;;;;;3.67;3.33;;;;;;;2.43;100.00;96832.66;5007865;28;105521;-59
2022/01/20 05:41:51;;;;;;;4.27;3.10;;;;;;;2.36;100.00;96827.34;5008357;28;101824;-60
2022/01/20 05:44:29;;;;;;;3.50;3.07;;;;;;;2.30;100.00;96822.84;5008335;28;104734;-60
2022/01/20 05:46:56;;;;;;;4.80;3.33;;;;;;;2.27;100.00;96825.03;5006997;28;105704;-60
2022/01/20 05:49:51;;;;;;;3.83;3.33;;;;;;;2.23;100.00;96823.78;4993906;28;101981;-60
2022/01/20 05:52:19;;;;;;;4.10;3.70;;;;;;;2.17;100.00;96827.16;5014515;28;104998;-60
2022/01/20 05:54:46;;;;;;;3.97;3.20;;;;;;;2.17;100.00;96837.66;5011332;28;101869;-59
2022/01/20 05:57:13;;;;;;;5.20;3.67;;;;;;;2.13;100.00;96825.94;5011665;28;105160;-60
2022/01/20 05:59:48;;;;;;;5.10;3.73;;;;;;;2.16;100.00;96826.34;5010253;28;105218;-59
2022/01/20 06:02:29;;;;;;;3.40;3.10;;;;;;;2.16;100.00;96826.34;5010951;28;101923;-59
2022/01/20 06:04:59;;;;;;;4.00;3.10;;;;;;;2.14;100.00;96827.53;5011031;28;105117;-59
2022/01/20 06:07:26;;;;;;;5.00;3.50;;;;;;;2.15;100.00;96824.75;5010160;28;105491;-59
2022/01/20 06:09:53;;;;;;;5.43;3.23;;;;;;;2.16;100.00;96809.78;5010452;28;101919;-59
2022/01/20 06:12:20;;;;;;;5.40;3.73;;;;;;;2.18;100.00;96815.69;5010674;28;104986;-60
2022/01/20 06:14:47;;;;;;;3.40;2.97;;;;;;;2.17;100.00;96816.66;5013347;28;105011;-59
2022/01/20 06:17:14;;;;;;;3.37;3.00;;;;;;;2.20;100.00;96824.16;5010500;28;105268;-59
2022/01/20 06:19:42;;;;;;;4.60;3.50;;;;;;;2.21;100.00;96817.91;5010076;28;105054;-60
2022/01/20 06:22:13;;;;;;;3.30;2.90;;;;;;;2.23;100.00;96816.72;5010872;28;101926;-60
2022/01/20 06:24:42;;;;;;;3.67;3.00;;;;;;;2.24;100.00;96820.19;5010644;28;104531;-60
2022/01/20 06:27:09;;;;;;;3.63;3.00;;;;;;;2.24;100.00;96814.94;5009828;28;105621;-60
2022/01/20 06:29:37;;;;;;;4.27;2.57;;;;;;;2.27;100.00;96812.75;5009950;28;102008;-60
2022/01/20 06:32:05;;;;;;;3.53;3.10;;;;;;;2.31;100.00;96815.78;5010183;28;104649;-60
2022/01/20 06:34:32;;;;;;;3.53;3.10;;;;;;;2.32;100.00;96809.53;5010231;28;104824;-60
2022/01/20 06:36:59;;;;;;;4.80;3.20;;;;;;;2.33;100.00;96805.91;5014015;28;101845;-60
2022/01/20 06:39:28;;;;;;;3.83;3.20;;;;;;;2.36;100.00;96798.47;5009871;28;105051;-60
2022/01/20 06:41:55;;;;;;;3.60;3.10;;;;;;;2.38;100.00;96798.28;5010716;28;101780;-60
2022/01/20 06:44:22;;;;;;;3.80;2.60;;;;;;;2.43;100.00;96790.66;5010503;28;105092;-60
2022/01/20 06:46:49;;;;;;;2.53;2.33;;;;;;;2.40;100.00;96786.59;5009265;28;105542;-59
2022/01/20 06:49:25;;;;;;;2.90;2.60;;;;;;;2.48;100.00;96793.53;5010446;28;102317;-60
2022/01/20 06:51:57;;;;;;;3.00;2.80;;;;;;;2.49;100.00;96798.59;5010631;28;105025;-60
2022/01/20 06:54:24;;;;;;;2.47;2.27;;;;;;;2.55;100.00;96810.94;5009886;28;105442;-60
2022/01/20 06:56:53;;;;;;;3.13;2.80;;;;;;;2.60;100.00;96813.81;5011862;28;102334;-61
2022/01/20 06:59:21;;;;;;;2.50;2.30;;;;;;;2.59;100.00;96812.19;5008894;28;105383;-61
2022/01/20 07:01:50;;;;;;;2.80;2.53;;;;;;;2.62;100.00;96821.50;5009890;28;102111;-60
2022/01/20 07:04:21;;;;;;;3.27;2.50;;;;;;;2.67;100.00;96814.66;5010421;28;105513;-60
2022/01/20 07:06:48;;;;;;;2.97;2.60;;;;;;;2.68;100.00;96807.63;5009316;28;105037;-60
2022/01/20 07:09:34;;;;;;;2.77;2.53;;;;;;;2.69;100.00;96814.50;5007856;28;101760;-60
2022/01/20 07:12:33;;;;;;;3.37;2.40;;;;;;;2.65;100.00;96814.06;5006858;28;104981;-61
2022/01/20 07:15:01;;;;;;;3.60;3.20;;;;;;;2.67;100.00;96808.63;5003604;28;105620;-60
2022/01/20 07:17:34;;;;;;;2.77;2.30;;;;;;;2.69;100.00;96814.50;5010296;28;101907;-60
2022/01/20 07:20:02;;;;;;;1.97;1.80;;;;;;;2.69;100.00;96812.66;5013124;28;104897;-60
2022/01/20 07:22:29;;;;;;;2.20;2.00;;;;;;;2.58;100.00;96810.56;5006886;28;102011;-60
2022/01/20 07:25:00;;;;;;;2.40;2.20;;;;;;;2.54;100.00;96829.50;5023717;28;104672;-60
2022/01/20 07:27:55;;;;;;;1.90;1.80;;;;;;;2.48;100.00;96836.34;4986736;28;102601;-60
2022/01/20 07:30:22;;;;;;;3.77;2.00;;;;;;;2.49;100.00;96830.09;4990416;28;101872;-60
2022/01/20 07:32:50;;;;;;;2.30;2.10;;;;;;;2.50;100.00;96828.25;4999811;28;104822;-61
2022/01/20 07:35:20;;;;;;;2.97;2.10;;;;;;;2.50;100.00;96825.63;5009158;28;105395;-60
2022/01/20 07:38:01;;;;;;;3.27;2.40;;;;;;;2.47;100.00;96837.31;5010006;28;101907;-60
2022/01/20 07:40:29;;;;;;;2.50;1.90;;;;;;;2.41;100.00;96824.16;5006691;28;105346;-60
2022/01/20 07:43:05;;;;;;;3.50;2.10;;;;;;;2.39;100.00;96816.47;4994174;28;103077;-62
2022/01/20 07:45:47;;;;;;;2.10;1.90;;;;;;;2.42;100.00;96825.78;5022753;28;105161;-59
2022/01/20 07:48:49;;;;;;;2.60;2.33;;;;;;;2.41;100.00;96834.66;4992555;28;103027;-60
2022/01/20 07:51:19;;;;;;;4.00;2.40;;;;;;;2.41;100.00;96829.41;5001181;28;102182;-60
2022/01/20 07:53:48;;;;;;;2.33;2.13;;;;;;;2.42;100.00;96826.59;5009839;28;104858;-60
2022/01/20 07:56:16;;;;;;;3.30;2.60;;;;;;;2.44;100.00;96832.47;5008825;28;105423;-61
2022/01/20 07:59:27;;;;;;;2.63;2.17;;;;;;;2.46;100.00;96816.53;5009581;28;101951;-60
2022/01/20 08:01:56;;;;;;;3.37;2.07;;;;;;;2.49;100.00;96816.97;5006431;28;105385;-60
2022/01/20 08:04:23;;;;;;;3.27;2.23;;;;;;;2.52;100.00;96826.28;4989073;28;104843;-60
2022/01/20 08:06:51;;;;;;;2.77;2.57;;;;;;;2.54;100.00;96816.38;4993017;28;101890;-60
2022/01/20 08:09:30;;;;;;;2.53;2.17;;;;;;;2.57;100.00;96829.94;4989059;28;105706;-60
2022/01/20 08:15:32;;;;;;;2.90;1.87;;;;;;;2.64;100.00;96835.25;4989503;28;105339;-60
2022/01/20 08:18:40;;;;;;;2.50;1.80;;;;;;;2.68;100.00;96839.91;4990719;28;105801;-60
2022/01/20 08:21:08;;;;;;;2.30;2.10;;;;;;;2.75;100.00;96843.44;4989503;28;102089;-60
2022/01/20 08:23:35;;;;;;;2.10;1.60;;;;;;;2.79;100.00;96842.03;4989569;28;104908;-60
2022/01/20 08:26:03;;;;;;;2.37;2.17;;;;;;;2.83;100.00;96853.78;5000418;28;106317;-60
2022/01/20 08:28:31;;;;;;;2.13;2.03;;;;;;;2.85;100.00;96859.63;5005679;28;102111;-60
2022/01/20 08:30:58;;;;;;;1.83;1.70;;;;;;;2.88;100.00;96861.06;4992271;28;105502;-62
2022/01/20 08:33:25;;;;;;;1.50;1.40;;;;;;;2.92;100.00;96859.69;5007574;28;102072;-62
2022/01/20 08:36:01;;;;;;;1.50;1.40;;;;;;;2.94;100.00;96871.63;5009291;28;104652;-59
2022/01/20 08:42:08;;;;;;;21.07;12.17;;;;;;;2.99;100.00;96871.06;5009289;28;101856;-61
2022/01/20 08:44:36;;;;;;;1.70;1.60;;;;;;;3.00;100.00;96878.75;5008085;28;105642;-62
2022/01/20 08:47:09;;;;;;;1.97;1.47;;;;;;;3.03;100.00;96880.19;5004954;28;104763;-61
2022/01/20 08:49:50;;;;;;;1.80;1.70;;;;;;;3.06;100.00;96892.94;5001548;28;102334;-60
2022/01/20 08:52:21;;;;;;;2.13;1.70;;;;;;;3.07;100.00;96891.94;5009207;28;105311;-60
2022/01/20 08:54:56;;;;;;;1.47;1.37;;;;;;;3.07;100.00;96898.00;5011910;28;105097;-60
2022/01/20 08:58:00;;;;;;;3.87;3.27;;;;;;;3.10;100.00;96900.25;5009824;28;103795;-60
2022/01/20 09:00:33;;;;;;;3.63;2.97;;;;;;;3.12;100.00;96886.94;5004841;28;105221;-60
2022/01/20 09:03:04;;;;;;;1.67;1.57;;;;;;;3.11;100.00;96891.34;4989098;28;101778;-60
2022/01/20 09:05:32;;;;;;;1.57;1.40;;;;;;;3.14;100.00;96901.50;4993008;28;104413;-60
2022/01/20 09:08:59;;;;;;;2.60;2.13;;;;;;;3.16;100.00;96898.69;5008101;28;105089;-60
2022/01/20 09:11:36;;;;;;;5.10;1.90;;;;;;;3.18;100.00;96888.78;5005350;28;101934;-60
2022/01/20 09:16:55;;;;;;;1.93;1.83;;;;;;;3.21;100.00;96886.56;4991542;28;104779;-61
2022/01/20 09:19:35;;;;;;;2.00;1.90;;;;;;;3.23;100.00;96870.63;4988650;28;105211;-60
2022/01/20 09:22:05;;;;;;;2.17;2.00;;;;;;;3.27;100.00;96869.25;5004053;28;105022;-56
2022/01/20 09:24:34;;;;;;;1.80;1.70;;;;;;;3.28;100.00;96882.16;5010696;28;102132;-60
2022/01/20 09:27:03;;;;;;;4.60;3.93;;;;;;;3.30;100.00;96866.22;5011749;28;105236;-64
2022/01/20 09:29:30;;;;;;;2.43;2.23;;;;;;;3.32;100.00;96877.34;5007966;28;105036;-60
2022/01/20 09:31:59;;;;;;;2.60;2.40;;;;;;;3.36;100.00;96878.56;4992276;28;102043;-59
2022/01/20 09:34:30;;;;;;;2.70;2.50;;;;;;;3.37;100.00;96895.97;5010611;28;104811;-59
2022/01/20 09:36:58;;;;;;;3.27;2.80;;;;;;;3.37;100.00;96878.38;5011404;28;104194;-58
2022/01/20 09:39:43;;;;;;;4.33;3.33;;;;;;;3.39;100.00;96878.19;5012062;28;101963;-59
2022/01/20 09:42:26;;;;;;;3.03;2.73;;;;;;;3.39;100.00;96889.50;5007668;28;105463;-61
2022/01/20 09:44:54;;;;;;;1.97;1.87;;;;;;;3.39;100.00;96896.59;4991796;28;101927;-60
2022/01/20 09:51:05;;;;;;;1.87;1.77;;;;;;;3.39;100.00;96912.38;4991682;28;103893;-60
2022/01/20 09:53:43;;;;;;;1.60;1.50;;;;;;;3.42;100.00;96911.97;4989969;28;101671;-60
2022/01/20 09:56:31;;;;;;;1.50;1.40;;;;;;;3.42;100.00;96936.47;4990174;28;102105;-60
2022/01/20 09:59:04;;;;;;;1.90;1.80;;;;;;;3.43;100.00;96926.72;5008701;28;102769;-60
2022/01/20 10:01:41;;;;;;;2.10;1.90;;;;;;;3.41;100.00;96918.25;5008032;28;102420;-60
2022/01/20 10:04:21;;;;;;;2.20;1.77;;;;;;;3.39;100.00;96915.78;5004732;28;104583;-60
2022/01/20 10:06:57;;;;;;;1.40;1.30;;;;;;;3.46;100.00;96929.00;5009832;28;101879;-59
2022/01/20 10:13:23;;;;;;;2.47;2.30;;;;;;;3.42;100.00;96925.13;5003191;28;104414;-61
2022/01/20 10:16:06;;;;;;;2.50;2.30;;;;;;;3.37;100.00;96927.50;5008007;28;101815;-61
2022/01/20 10:19:49;;;;;;;3.10;2.73;;;;;;;3.36;100.00;96926.72;4996037;28;103404;-61
2022/01/20 10:22:25;;;;;;;2.20;2.10;;;;;;;3.33;100.00;96916.56;4995779;28;103952;-61
2022/01/20 10:25:12;;;;;;;2.60;2.40;;;;;;;3.33;100.00;96921.81;5002271;28;101846;-61
2022/01/20 10:28:25;;;;;;;4.40;3.13;;;;;;;3.30;100.00;96926.66;5007766;28;105016;-65
2022/01/20 10:30:55;;;;;;;2.40;2.20;;;;;;;3.21;100.00;96909.41;5010752;28;105208;-59
2022/01/20 10:33:23;;;;;;;2.10;2.00;;;;;;;3.22;100.00;96911.06;5007704;28;105228;-60
2022/01/20 10:35:52;;;;;;;3.53;2.23;;;;;;;3.12;100.00;96911.38;4995623;28;105430;-60
2022/01/20 10:38:53;;;;;;;3.03;2.83;;;;;;;3.15;100.00;96920.69;5011361;28;103175;-60
2022/01/20 10:42:00;;;;;;;2.23;2.03;;;;;;;3.20;100.00;96911.25;5023539;28;105471;-59
2022/01/20 10:44:40;;;;;;;2.20;1.90;;;;;;;3.27;100.00;96908.66;5007504;28;105509;-60
2022/01/20 10:47:13;;;;;;;2.10;2.00;;;;;;;3.25;100.00;96913.28;5009929;28;102338;-59
2022/01/20 10:49:42;;;;;;;2.40;2.20;;;;;;;3.26;100.00;96922.78;5006739;28;104874;-60
2022/01/20 10:52:10;;;;;;;2.43;2.30;;;;;;;3.31;100.00;96934.38;5022944;28;105808;-59
2022/01/20 10:54:40;;;;;;;2.90;2.70;;;;;;;3.34;100.00;96912.13;5027938;27;101936;-60
2022/01/20 10:57:09;;;;;;;4.80;2.60;;;;;;;3.35;100.00;96917.22;5001447;28;103627;-60
2022/01/20 10:59:56;;;;;;;2.90;2.60;;;;;;;3.39;100.00;96928.16;5010093;28;101895;-60
2022/01/20 11:02:44;;;;;;;2.63;2.43;;;;;;;3.37;100.00;96928.34;5010245;28;104479;-59
2022/01/20 11:05:15;;;;;;;2.70;2.50;;;;;;;3.39;100.00;96921.06;5008363;28;105988;-59
2022/01/20 11:07:51;;;;;;;2.20;2.00;;;;;;;3.40;100.00;96904.31;5010441;28;101982;-59
2022/01/20 11:10:19;;;;;;;3.47;1.90;;;;;;;3.32;100.00;96908.88;5004621;28;104871;-59
2022/01/20 11:13:03;;;;;;;4.13;2.47;;;;;;;3.30;100.00;96909.09;5004256;28;105067;-58
2022/01/20 11:15:36;;;;;;;2.93;2.70;;;;;;;3.28;100.00;96905.81;4998955;28;101936;-59
2022/01/20 11:18:06;;;;;;;2.50;2.30;;;;;;;3.26;100.00;96899.13;5007138;28;104745;-59
2022/01/20 11:20:41;;;;;;;2.77;2.57;;;;;;;3.21;100.00;96907.59;5009762;28;101901;-59
2022/01/20 11:23:10;;;;;;;2.60;2.40;;;;;;;3.18;100.00;96891.41;5006918;28;104965;-59
2022/01/20 11:26:03;;;;;;;5.50;3.90;;;;;;;3.21;100.00;96891.00;5007738;28;105115;-59
2022/01/20 11:28:59;;;;;;;3.03;2.83;;;;;;;3.25;100.00;96892.25;4995981;28;102001;-59
2022/01/20 11:31:53;;;;;;;2.80;2.60;;;;;;;3.21;100.00;96888.38;5010061;28;103692;-58
2022/01/20 11:34:43;;;;;;;3.00;2.80;;;;;;;3.26;100.00;96886.00;5010454;28;103955;-59
2022/01/20 11:37:11;;;;;;;3.33;3.03;;;;;;;3.32;100.00;96880.78;5010028;28;101926;-59
2022/01/20 11:39:38;;;;;;;3.97;3.10;;;;;;;3.42;100.00;96870.72;5014104;28;102361;-59
2022/01/20 11:42:21;;;;;;;3.17;2.77;;;;;;;3.47;100.00;96872.78;5010910;28;101739;-59
2022/01/20 11:44:48;;;;;;;2.83;2.60;;;;;;;3.46;100.00;96868.53;5011030;28;103335;-59
2022/01/20 11:47:32;;;;;;;3.77;2.60;;;;;;;3.52;100.00;96867.75;5009077;28;103179;-61
2022/01/20 11:49:59;;;;;;;2.40;2.20;;;;;;;3.60;100.00;96870.22;4991583;28;101762;-59
2022/01/20 11:52:28;;;;;;;3.00;2.80;;;;;;;3.66;100.00;96849.19;5008827;28;105619;-59
2022/01/20 11:54:55;;;;;;;2.60;2.40;;;;;;;3.75;100.00;96855.91;5010341;28;102593;-59
2022/01/20 11:57:32;;;;;;;2.13;2.03;;;;;;;3.71;100.00;96844.16;5010623;28;101863;-60
2022/01/20 12:00:01;;;;;;;2.33;2.03;;;;;;;3.81;100.00;96856.94;5010918;28;102661;-60
2022/01/20 12:02:32;;;;;;;2.27;2.07;;;;;;;3.86;100.00;96849.28;5012119;28;104159;-59
2022/01/20 12:05:03;;;;;;;2.93;2.53;;;;;;;3.88;100.00;96842.00;5009500;28;105290;-60
2022/01/20 12:08:10;;;;;;;2.57;2.37;;;;;;;3.80;100.00;96834.28;5009565;28;103732;-59
2022/01/20 12:10:39;;;;;;;2.37;2.17;;;;;;;3.81;100.00;96846.41;5009722;28;102113;-60
2022/01/20 12:13:09;;;;;;;2.37;2.17;;;;;;;3.78;100.00;96842.34;5005737;28;105951;-59
2022/01/20 12:15:36;;;;;;;2.37;2.23;;;;;;;3.92;100.00;96845.84;4993823;28;105709;-58
2022/01/20 12:18:15;;;;;;;2.03;1.93;;;;;;;3.87;100.00;96840.41;5005602;28;102097;-60
2022/01/20 12:20:42;;;;;;;1.90;1.80;;;;;;;3.88;100.00;96850.69;4989664;28;105662;-60
2022/01/20 12:23:08;;;;;;;2.30;2.10;;;;;;;3.94;100.00;96838.59;4988824;28;105237;-60
2022/01/20 12:25:37;;;;;;;2.37;2.17;;;;;;;3.90;100.00;96834.72;5009441;28;101866;-60
2022/01/20 12:28:34;;;;;;;2.00;1.90;;;;;;;3.84;100.00;96828.44;5011771;28;105475;-60
2022/01/20 12:31:02;;;;;;;2.40;2.00;;;;;;;4.06;100.00;96826.47;5010566;28;101649;-59
2022/01/20 12:33:33;;;;;;;2.20;2.00;;;;;;;4.32;100.00;96851.00;5010729;28;102501;-59
2022/01/20 12:36:03;;;;;;;2.37;1.97;;;;;;;4.52;100.00;96829.97;5008538;28;105276;-59
2022/01/20 12:38:47;;;;;;;2.03;1.90;;;;;;;4.63;100.00;96822.28;5010390;28;101823;-60
2022/01/20 12:41:26;;;;;;;1.70;1.60;;;;;;;4.78;100.00;96814.16;5009229;28;105176;-60
2022/01/20 12:43:59;;;;;;;3.40;1.80;;;;;;;5.06;100.00;96807.66;5008536;28;105572;-60
2022/01/20 12:46:28;;;;;;;1.70;1.60;;;;;;;5.20;100.00;96803.16;5005521;28;101849;-59
2022/01/20 12:49:13;;;;;;;1.63;1.53;;;;;;;4.84;100.00;96789.63;5008755;28;103617;-64
2022/01/20 12:51:43;;;;;;;2.57;1.60;;;;;;;4.67;100.00;96785.81;4989075;28;101877;-60
2022/01/20 12:54:13;;;;;;;2.37;1.70;;;;;;;4.76;100.00;96792.50;5005800;28;104852;-59
2022/01/20 12:56:43;;;;;;;3.03;1.63;;;;;;;4.81;100.00;96803.22;4988428;28;105258;-60
2022/01/20 12:59:21;;;;;;;1.50;1.37;;;;;;;4.48;100.00;96792.69;4988568;28;101905;-60
2022/01/20 13:01:50;;;;;;;1.40;1.30;;;;;;;4.41;100.00;96791.06;4993591;28;101906;-59
2022/01/20 13:04:23;;;;;;;1.60;1.50;;;;;;;4.40;100.00;96805.25;5008471;28;105138;-60